Time;durP1;ratioP1;P1;durP2;ratioP2;P2;SDS_P1;SDS_P2;PMS_P1;PMS_P2;Temp;Humidity;BMP_temperature;BMP_pressure;BME280_temperature;BME280_humidity;BME280_pressure;Samples;Min_cycle;Max_cycle;Signal;HPM_P1;HPM_P2
2022/08/27 00:00:28;;;;;;;9.63;5.47;;;;;;;;;;8361451;28;20672;-58
2022/08/27 00:04:28;;;;;;;6.50;4.78;;;;;;;;;;8364184;28;20024;-58
2022/08/27 00:08:29;;;;;;;7.22;5.70;;;;;;;;;;8359528;28;20028;-58
2022/08/27 00:12:30;;;;;;;10.23;6.15;;;;;;;;;;8358656;28;21087;-60
2022/08/27 00:16:31;;;;;;;8.85;5.60;;;;;;;;;;8359322;28;20072;-58
2022/08/27 00:20:31;;;;;;;13.43;6.38;;;;;;;;;;8358819;28;20601;-58
2022/08/27 00:24:31;;;;;;;7.05;5.05;;;;;;;;;;8362464;28;20056;-58
2022/08/27 00:28:32;;;;;;;8.20;5.70;;;;;;;;;;8360811;28;20024;-58
2022/08/27 00:32:32;;;;;;;8.65;5.82;;;;;;;;;;8360512;28;20470;-58
2022/08/27 00:36:33;;;;;;;14.00;5.67;;;;;;;;;;8360921;28;20032;-58
2022/08/27 00:40:33;;;;;;;7.28;5.32;;;;;;;;;;8360585;28;20267;-58
2022/08/27 00:44:33;;;;;;;7.13;6.20;;;;;;;;;;8358658;28;20230;-58
2022/08/27 00:48:34;;;;;;;8.68;6.57;;;;;;;;;;8360554;28;20046;-58
2022/08/27 00:52:44;;;;;;;8.40;6.10;;;;;;;;;;8359785;28;20374;-58
2022/08/27 00:56:44;;;;;;;9.73;5.60;;;;;;;;;;8362201;28;20164;-58
2022/08/27 01:00:45;;;;;;;6.47;5.40;;;;;;;;;;8359152;28;20337;-58
2022/08/27 01:04:47;;;;;;;10.88;5.88;;;;;;;;;;8359992;28;20294;-58
2022/08/27 01:08:51;;;;;;;10.82;5.88;;;;;;;;;;8357307;28;20028;-58
2022/08/27 01:12:53;;;;;;;9.52;5.70;;;;;;;;;;8353677;28;20025;-58
2022/08/27 01:16:54;;;;;;;7.90;5.78;;;;;;;;;;8351965;28;20159;-58
2022/08/27 01:20:57;;;;;;;11.20;6.15;;;;;;;;;;8354842;28;20454;-58
2022/08/27 01:24:59;;;;;;;13.43;7.43;;;;;;;;;;8357740;28;20054;-58
2022/08/27 01:29:00;;;;;;;6.75;5.93;;;;;;;;;;8358875;28;20214;-58
2022/08/27 01:33:06;;;;;;;12.38;6.10;;;;;;;;;;8355923;28;20036;-58
2022/08/27 01:37:07;;;;;;;8.38;6.43;;;;;;;;;;8355797;28;20027;-58
2022/08/27 01:41:07;;;;;;;6.03;5.50;;;;;;;;;;8354206;28;20450;-57
2022/08/27 01:45:10;;;;;;;6.57;5.53;;;;;;;;;;8353488;28;20031;-58
2022/08/27 01:49:10;;;;;;;8.73;6.43;;;;;;;;;;8354252;28;20462;-58
2022/08/27 01:53:14;;;;;;;9.48;6.72;;;;;;;;;;8354429;28;20036;-58
2022/08/27 01:57:14;;;;;;;11.15;6.82;;;;;;;;;;8358897;28;20385;-58
2022/08/27 02:01:15;;;;;;;10.38;7.05;;;;;;;;;;8352228;28;20033;-58
2022/08/27 02:05:15;;;;;;;14.30;7.03;;;;;;;;;;8358392;28;20423;-58
2022/08/27 02:09:16;;;;;;;11.43;6.50;;;;;;;;;;8355228;28;20039;-58
2022/08/27 02:13:16;;;;;;;9.13;6.10;;;;;;;;;;8354368;28;20521;-58
2022/08/27 02:17:16;;;;;;;9.20;6.85;;;;;;;;;;8354926;28;20290;-58
2022/08/27 02:21:17;;;;;;;10.02;5.68;;;;;;;;;;8352972;28;20085;-58
2022/08/27 02:25:20;;;;;;;9.02;6.50;;;;;;;;;;8355400;28;20529;-58
2022/08/27 02:29:20;;;;;;;8.80;6.35;;;;;;;;;;8355173;28;20517;-58
2022/08/27 02:33:21;;;;;;;8.20;7.10;;;;;;;;;;8352756;28;20029;-58
2022/08/27 02:37:21;;;;;;;10.27;7.50;;;;;;;;;;8354203;28;20058;-58
2022/08/27 02:41:21;;;;;;;13.83;8.37;;;;;;;;;;8356624;28;20024;-58
2022/08/27 02:45:22;;;;;;;12.98;7.90;;;;;;;;;;8353862;28;21442;-58
2022/08/27 02:49:22;;;;;;;12.15;8.05;;;;;;;;;;8353261;28;20406;-58
2022/08/27 02:53:22;;;;;;;11.87;7.93;;;;;;;;;;8350142;28;20576;-58
2022/08/27 02:57:23;;;;;;;11.23;7.03;;;;;;;;;;8354408;28;20031;-58
2022/08/27 03:01:23;;;;;;;9.85;8.40;;;;;;;;;;8352740;28;20444;-58
2022/08/27 03:05:23;;;;;;;12.93;7.93;;;;;;;;;;8353101;28;20023;-58
2022/08/27 03:09:24;;;;;;;11.70;7.30;;;;;;;;;;8350466;28;20563;-58
2022/08/27 03:13:25;;;;;;;10.02;6.88;;;;;;;;;;8357613;28;20502;-59
2022/08/27 03:21:45;;;;;;;10.75;7.53;;;;;;;;;;8357002;28;20039;-58
2022/08/27 03:25:48;;;;;;;13.40;8.68;;;;;;;;;;8357889;28;20028;-58
2022/08/27 03:29:49;;;;;;;10.25;7.43;;;;;;;;;;8360287;28;20472;-58
2022/08/27 03:33:49;;;;;;;13.10;8.30;;;;;;;;;;8356827;28;20159;-58
2022/08/27 03:37:50;;;;;;;10.50;8.68;;;;;;;;;;8358730;28;20032;-58
2022/08/27 03:41:50;;;;;;;12.05;8.68;;;;;;;;;;8355056;28;20048;-58
2022/08/27 03:45:51;;;;;;;11.40;8.38;;;;;;;;;;8358139;28;20222;-58
2022/08/27 03:49:51;;;;;;;10.77;7.80;;;;;;;;;;8355682;28;20016;-58
2022/08/27 03:53:52;;;;;;;9.65;8.23;;;;;;;;;;8356625;28;20453;-58
2022/08/27 03:57:52;;;;;;;11.70;8.50;;;;;;;;;;8358548;28;20021;-58
2022/08/27 04:01:52;;;;;;;16.20;8.80;;;;;;;;;;8356367;28;20233;-58
2022/08/27 04:05:53;;;;;;;13.23;9.15;;;;;;;;;;8358453;28;20017;-58
2022/08/27 04:09:53;;;;;;;10.85;8.35;;;;;;;;;;8356151;28;20137;-58
2022/08/27 04:13:54;;;;;;;10.60;8.27;;;;;;;;;;8358363;28;20062;-58
2022/08/27 04:17:54;;;;;;;10.98;8.00;;;;;;;;;;8356381;28;20040;-58
2022/08/27 04:22:02;;;;;;;8.32;6.90;;;;;;;;;;8356333;28;20028;-60
2022/08/27 04:26:06;;;;;;;8.57;7.65;;;;;;;;;;8357517;28;20029;-58
2022/08/27 04:30:08;;;;;;;8.30;7.20;;;;;;;;;;8355746;28;20024;-58
2022/08/27 04:34:08;;;;;;;9.93;7.30;;;;;;;;;;8361088;28;20062;-57
2022/08/27 04:38:08;;;;;;;8.50;7.70;;;;;;;;;;8363080;28;20032;-58
2022/08/27 04:42:08;;;;;;;7.05;6.35;;;;;;;;;;8361932;28;20143;-58
2022/08/27 04:46:09;;;;;;;9.45;6.68;;;;;;;;;;8363602;28;20113;-57
2022/08/27 04:50:09;;;;;;;7.28;6.55;;;;;;;;;;8360535;28;20024;-58
2022/08/27 04:54:09;;;;;;;8.37;7.07;;;;;;;;;;8360955;28;20017;-58
2022/08/27 04:58:10;;;;;;;7.80;7.00;;;;;;;;;;8363709;28;20290;-58
2022/08/27 05:02:10;;;;;;;8.07;6.60;;;;;;;;;;8361730;28;20086;-58
2022/08/27 05:06:11;;;;;;;7.93;6.83;;;;;;;;;;8360878;28;21232;-58
2022/08/27 05:10:11;;;;;;;9.73;7.80;;;;;;;;;;8363749;28;20033;-58
2022/08/27 05:14:12;;;;;;;9.05;6.82;;;;;;;;;;8363688;28;20039;-58
2022/08/27 05:18:13;;;;;;;7.93;6.97;;;;;;;;;;8362499;28;20040;-58
2022/08/27 05:22:13;;;;;;;9.05;7.20;;;;;;;;;;8362500;28;20036;-57
2022/08/27 05:26:13;;;;;;;7.88;6.50;;;;;;;;;;8361489;28;20036;-57
2022/08/27 05:30:14;;;;;;;8.18;6.70;;;;;;;;;;8362227;28;20027;-58
2022/08/27 05:34:15;;;;;;;8.65;7.35;;;;;;;;;;8362657;28;20021;-58
2022/08/27 05:38:16;;;;;;;9.50;7.75;;;;;;;;;;8359404;28;20024;-58
2022/08/27 05:42:16;;;;;;;10.25;8.30;;;;;;;;;;8362697;28;20059;-58
2022/08/27 05:46:19;;;;;;;9.17;7.83;;;;;;;;;;8360067;28;20040;-58
2022/08/27 05:50:19;;;;;;;10.83;8.20;;;;;;;;;;8362827;28;20277;-57
2022/08/27 05:54:19;;;;;;;10.23;8.20;;;;;;;;;;8364591;28;20024;-57
2022/08/27 06:02:40;;;;;;;10.68;9.23;;;;;;;;;;8357540;28;20051;-58
2022/08/27 06:06:41;;;;;;;10.75;9.38;;;;;;;;;;8359846;28;20028;-58
2022/08/27 06:10:41;;;;;;;12.82;10.20;;;;;;;;;;8358343;28;20032;-58
2022/08/27 06:14:41;;;;;;;12.52;10.30;;;;;;;;;;8360370;28;20035;-58
2022/08/27 06:18:43;;;;;;;12.45;11.13;;;;;;;;;;8357365;28;20036;-57
2022/08/27 06:22:44;;;;;;;15.82;11.63;;;;;;;;;;8361512;28;20035;-58
2022/08/27 06:26:44;;;;;;;16.95;13.30;;;;;;;;;;8364103;28;20155;-58
2022/08/27 06:30:45;;;;;;;18.25;14.43;;;;;;;;;;8361841;28;20056;-58
2022/08/27 06:34:46;;;;;;;15.40;11.17;;;;;;;;;;8360786;28;20031;-58
2022/08/27 06:38:46;;;;;;;14.18;12.25;;;;;;;;;;8358017;28;20038;-58
2022/08/27 06:42:46;;;;;;;16.10;12.73;;;;;;;;;;8356589;28;20111;-58
2022/08/27 06:46:47;;;;;;;12.30;11.03;;;;;;;;;;8360494;28;20044;-58
2022/08/27 06:50:47;;;;;;;13.90;11.07;;;;;;;;;;8357394;28;20033;-58
2022/08/27 06:54:49;;;;;;;16.80;12.35;;;;;;;;;;8368515;28;21142;-58
2022/08/27 06:58:54;;;;;;;13.88;12.15;;;;;;;;;;8368799;28;20019;-58
2022/08/27 07:02:54;;;;;;;11.85;10.65;;;;;;;;;;8368722;28;20033;-60
2022/08/27 07:06:55;;;;;;;12.60;9.57;;;;;;;;;;8369827;28;20768;-58
2022/08/27 07:10:56;;;;;;;12.05;9.63;;;;;;;;;;8370005;28;20139;-58
2022/08/27 07:14:57;;;;;;;12.40;10.23;;;;;;;;;;8368464;28;20024;-58
2022/08/27 07:18:58;;;;;;;12.45;10.52;;;;;;;;;;8360912;28;20139;-58
2022/08/27 07:22:58;;;;;;;14.23;10.18;;;;;;;;;;8362757;28;20020;-58
2022/08/27 07:27:00;;;;;;;13.80;10.00;;;;;;;;;;8367265;28;20023;-58
2022/08/27 07:31:00;;;;;;;13.23;10.88;;;;;;;;;;8360912;28;20032;-58
2022/08/27 07:35:01;;;;;;;11.52;9.57;;;;;;;;;;8363123;28;20032;-58
2022/08/27 07:39:02;;;;;;;13.93;10.05;;;;;;;;;;8364265;28;20141;-58
2022/08/27 07:47:24;;;;;;;9.50;8.50;;;;;;;;;;8360437;28;20507;-58
2022/08/27 07:51:26;;;;;;;10.27;8.63;;;;;;;;;;8364637;28;20063;-58
2022/08/27 07:55:26;;;;;;;12.65;8.60;;;;;;;;;;8365733;28;20128;-58
2022/08/27 07:59:27;;;;;;;11.57;8.73;;;;;;;;;;8365690;28;20134;-58
2022/08/27 08:03:28;;;;;;;11.80;9.10;;;;;;;;;;8361407;28;20070;-59
2022/08/27 08:07:28;;;;;;;11.25;8.52;;;;;;;;;;8362970;28;20101;-59
2022/08/27 08:11:28;;;;;;;9.50;7.82;;;;;;;;;;8369716;28;20032;-58
2022/08/27 08:15:28;;;;;;;12.60;8.63;;;;;;;;;;8365366;28;20043;-59
2022/08/27 08:19:29;;;;;;;8.43;7.60;;;;;;;;;;8366353;28;20020;-59
2022/08/27 08:23:29;;;;;;;9.70;6.97;;;;;;;;;;8360157;28;20515;-59
2022/08/27 08:27:31;;;;;;;9.02;7.65;;;;;;;;;;8362995;28;20020;-59
2022/08/27 08:31:31;;;;;;;7.35;6.60;;;;;;;;;;8362102;28;20064;-59
2022/08/27 08:35:31;;;;;;;9.20;7.17;;;;;;;;;;8365379;28;20377;-58
2022/08/27 08:39:32;;;;;;;11.45;7.60;;;;;;;;;;8365580;28;20285;-59
2022/08/27 08:43:42;;;;;;;13.05;7.50;;;;;;;;;;8364453;28;20021;-59
2022/08/27 08:47:45;;;;;;;11.65;7.43;;;;;;;;;;8365755;28;20045;-59
2022/08/27 08:51:45;;;;;;;9.70;6.73;;;;;;;;;;8364324;28;20020;-59
2022/08/27 08:55:54;;;;;;;9.77;7.37;;;;;;;;;;8367554;28;20031;-59
2022/08/27 09:00:00;;;;;;;9.23;6.72;;;;;;;;;;8365856;28;20070;-59
2022/08/27 09:04:05;;;;;;;9.40;6.97;;;;;;;;;;8363709;28;20214;-61
2022/08/27 09:08:15;;;;;;;7.57;6.60;;;;;;;;;;8362477;28;20024;-59
2022/08/27 09:16:25;;;;;;;9.50;6.60;;;;;;;;;;8286549;28;20057;-74
2022/08/27 09:20:25;;;;;;;7.18;5.85;;;;;;;;;;8283571;28;20024;-74
2022/08/27 09:24:26;;;;;;;9.37;5.30;;;;;;;;;;8285792;28;20026;-74
2022/08/27 09:32:54;;;;;;;9.68;6.97;;;;;;;;;;8283641;28;20040;-74
2022/08/27 09:36:58;;;;;;;8.63;6.53;;;;;;;;;;8270216;28;20026;-73
2022/08/27 09:41:00;;;;;;;7.45;5.53;;;;;;;;;;8284150;28;20795;-74
2022/08/27 09:45:00;;;;;;;8.05;5.25;;;;;;;;;;8283799;28;20503;-73
2022/08/27 09:49:10;;;;;;;8.97;5.70;;;;;;;;;;8276196;28;20088;-74
2022/08/27 09:53:18;;;;;;;6.97;5.60;;;;;;;;;;8286148;28;20280;-74
2022/08/27 09:57:29;;;;;;;10.88;6.90;;;;;;;;;;8287049;28;20682;-73
2022/08/27 10:01:31;;;;;;;9.07;5.90;;;;;;;;;;8283797;28;20048;-73
2022/08/27 10:05:36;;;;;;;8.38;6.03;;;;;;;;;;8283482;28;20022;-73
2022/08/27 10:09:42;;;;;;;8.32;6.07;;;;;;;;;;8270414;28;20041;-74
2022/08/27 10:13:56;;;;;;;6.95;5.35;;;;;;;;;;8282916;28;20119;-73
2022/08/27 10:18:10;;;;;;;7.78;5.90;;;;;;;;;;8268994;28;20057;-74
2022/08/27 10:22:19;;;;;;;8.02;5.88;;;;;;;;;;8282535;28;20060;-74
2022/08/27 10:26:25;;;;;;;6.93;5.22;;;;;;;;;;8283373;28;20067;-75
2022/08/27 10:30:38;;;;;;;7.07;6.05;;;;;;;;;;8283956;28;20029;-73
2022/08/27 10:34:39;;;;;;;;;;;;;;;;;;8285659;28;20170;-74
2022/08/27 10:38:41;;;;;;;7.82;5.88;;;;;;;;;;8286228;28;19948;-73
2022/08/27 10:43:01;;;;;;;8.13;5.57;;;;;;;;;;8283738;28;20026;-74
2022/08/27 10:47:04;;;;;;;5.30;4.75;;;;;;;;;;8244280;28;20041;-74
2022/08/27 10:51:05;;;;;;;6.72;5.35;;;;;;;;;;8283515;28;20093;-73
2022/08/27 10:55:17;;;;;;;8.95;5.50;;;;;;;;;;8285476;28;20045;-74
2022/08/27 10:59:23;;;;;;;6.18;4.75;;;;;;;;;;8283816;28;20449;-74
2022/08/27 11:03:34;;;;;;;8.90;5.53;;;;;;;;;;8281830;28;20505;-74
2022/08/27 11:07:36;;;;;;;7.70;5.07;;;;;;;;;;8281913;28;20049;-73
2022/08/27 11:11:48;;;;;;;5.68;5.18;;;;;;;;;;8284634;28;20071;-74
2022/08/27 11:15:50;;;;;;;6.00;5.40;;;;;;;;;;8282543;28;20037;-74
2022/08/27 11:19:58;;;;;;;8.00;5.22;;;;;;;;;;8282652;28;20036;-73
2022/08/27 11:24:01;;;;;;;6.75;5.25;;;;;;;;;;8281413;28;20663;-74
2022/08/27 11:28:02;;;;;;;5.70;5.20;;;;;;;;;;8282585;28;20033;-74
2022/08/27 11:32:14;;;;;;;6.70;4.90;;;;;;;;;;8280995;28;20034;-74
2022/08/27 11:36:20;;;;;;;5.68;5.13;;;;;;;;;;8270811;28;20052;-74
2022/08/27 11:40:32;;;;;;;6.10;5.50;;;;;;;;;;8282772;28;20041;-74
2022/08/27 11:44:38;;;;;;;6.93;5.40;;;;;;;;;;8278658;28;20017;-74
2022/08/27 11:48:40;;;;;;;5.20;4.70;;;;;;;;;;8292124;28;20117;-73
2022/08/27 11:52:52;;;;;;;7.18;4.82;;;;;;;;;;8290164;28;20204;-73
2022/08/27 11:56:52;;;;;;;5.15;4.65;;;;;;;;;;8292268;28;20512;-74
2022/08/27 12:00:52;;;;;;;5.85;4.85;;;;;;;;;;8291315;28;20814;-74
2022/08/27 12:05:05;;;;;;;5.17;4.60;;;;;;;;;;8291846;28;20132;-73
2022/08/27 12:09:13;;;;;;;5.72;4.53;;;;;;;;;;8285098;28;20374;-73
2022/08/27 12:13:23;;;;;;;5.80;5.13;;;;;;;;;;8291628;28;20029;-74
2022/08/27 12:17:29;;;;;;;5.47;4.53;;;;;;;;;;8293662;28;20402;-74
2022/08/27 12:21:34;;;;;;;5.55;4.32;;;;;;;;;;8293181;28;20145;-74
2022/08/27 12:25:34;;;;;;;6.05;5.10;;;;;;;;;;8279756;28;20100;-74
2022/08/27 12:29:46;;;;;;;4.55;4.15;;;;;;;;;;8293511;28;20021;-73
2022/08/27 12:33:47;;;;;;;;;;;;;;;;;;8292537;28;21169;-74
2022/08/27 12:37:53;;;;;;;5.53;4.55;;;;;;;;;;8292096;28;19984;-74
2022/08/27 12:41:53;;;;;;;4.20;3.80;;;;;;;;;;8292719;28;20029;-74
2022/08/27 12:45:56;;;;;;;5.25;4.05;;;;;;;;;;8292581;28;20038;-73
2022/08/27 12:49:58;;;;;;;5.72;4.18;;;;;;;;;;8285733;28;20025;-74
2022/08/27 12:54:05;;;;;;;4.88;4.38;;;;;;;;;;8288984;28;20087;-73
2022/08/27 12:58:12;;;;;;;4.95;4.45;;;;;;;;;;8286566;28;20871;-74
2022/08/27 13:02:39;;;;;;;4.80;4.10;;;;;;;;;;8271936;28;20048;-75
2022/08/27 13:06:43;;;;;;;4.40;4.03;;;;;;;;;;8287338;28;21042;-74
2022/08/27 13:10:44;;;;;;;4.63;3.85;;;;;;;;;;8286450;28;20022;-73
2022/08/27 13:14:45;;;;;;;4.47;3.95;;;;;;;;;;8286822;28;20080;-73
2022/08/27 13:18:46;;;;;;;5.68;4.57;;;;;;;;;;8287994;28;20253;-73
2022/08/27 13:22:47;;;;;;;6.25;4.75;;;;;;;;;;8286794;28;20049;-73
2022/08/27 13:26:52;;;;;;;5.28;4.32;;;;;;;;;;8289715;28;20665;-74
2022/08/27 13:30:52;;;;;;;6.07;5.45;;;;;;;;;;8284451;28;20933;-74
2022/08/27 13:34:52;;;;;;;5.93;5.10;;;;;;;;;;8287753;28;20962;-73
2022/08/27 13:38:53;;;;;;;4.95;4.55;;;;;;;;;;8286090;28;20291;-74
2022/08/27 13:42:54;;;;;;;5.10;4.60;;;;;;;;;;8288048;28;20028;-73
2022/08/27 13:46:59;;;;;;;5.35;4.63;;;;;;;;;;8282425;28;20044;-73
2022/08/27 13:51:00;;;;;;;6.25;4.70;;;;;;;;;;8286421;28;20475;-74
2022/08/27 13:55:06;;;;;;;6.53;4.40;;;;;;;;;;8283381;28;20025;-74
2022/08/27 13:59:06;;;;;;;5.05;4.55;;;;;;;;;;8286554;28;20061;-74
2022/08/27 14:03:21;;;;;;;6.78;4.22;;;;;;;;;;8282905;28;20038;-74
2022/08/27 14:07:24;;;;;;;4.80;4.40;;;;;;;;;;8285913;28;20033;-74
2022/08/27 14:11:26;;;;;;;5.05;4.55;;;;;;;;;;8284124;28;20113;-74
2022/08/27 14:15:32;;;;;;;7.38;4.68;;;;;;;;;;8275544;28;20048;-74
2022/08/27 14:19:32;;;;;;;5.50;4.32;;;;;;;;;;8283514;28;20110;-74
2022/08/27 14:23:32;;;;;;;4.55;4.15;;;;;;;;;;8269548;28;20034;-75
2022/08/27 14:27:34;;;;;;;5.57;4.50;;;;;;;;;;8283466;28;20089;-74
2022/08/27 14:31:34;;;;;;;5.75;5.20;;;;;;;;;;8266516;28;20041;-73
2022/08/27 14:35:35;;;;;;;5.70;5.10;;;;;;;;;;8284547;28;20103;-74
2022/08/27 14:39:35;;;;;;;5.60;4.97;;;;;;;;;;8282997;28;20042;-74
2022/08/27 14:43:36;;;;;;;5.88;5.38;;;;;;;;;;8272384;28;20940;-75
2022/08/27 14:47:38;;;;;;;11.10;6.45;;;;;;;;;;8270466;28;20924;-73
2022/08/27 14:51:39;;;;;;;6.53;5.93;;;;;;;;;;8283285;28;20343;-73
2022/08/27 14:55:40;;;;;;;7.75;6.70;;;;;;;;;;8282601;28;20483;-74
2022/08/27 14:59:40;;;;;;;8.75;7.25;;;;;;;;;;8284753;28;20810;-73
2022/08/27 15:03:46;;;;;;;7.70;6.65;;;;;;;;;;8270656;28;20065;-74
2022/08/27 15:07:46;;;;;;;7.05;6.20;;;;;;;;;;8284413;28;20095;-74
2022/08/27 15:11:47;;;;;;;7.43;6.27;;;;;;;;;;8282329;28;20424;-74
2022/08/27 15:15:47;;;;;;;7.53;6.40;;;;;;;;;;8272418;28;20273;-74
2022/08/27 15:19:48;;;;;;;7.53;5.60;;;;;;;;;;8282387;28;20059;-75
2022/08/27 15:23:48;;;;;;;6.50;5.82;;;;;;;;;;8270317;28;20044;-74
2022/08/27 15:27:49;;;;;;;8.52;6.03;;;;;;;;;;8283092;28;20032;-74
2022/08/27 15:31:49;;;;;;;6.88;6.15;;;;;;;;;;8282755;28;20049;-74
2022/08/27 15:35:49;;;;;;;7.88;5.80;;;;;;;;;;8282105;28;20080;-74
2022/08/27 15:39:49;;;;;;;6.03;5.45;;;;;;;;;;8285041;28;20044;-74
2022/08/27 15:43:50;;;;;;;10.10;5.70;;;;;;;;;;8283497;28;20469;-74
2022/08/27 15:47:50;;;;;;;7.07;5.77;;;;;;;;;;8283744;28;20509;-74
2022/08/27 15:51:50;;;;;;;6.82;5.00;;;;;;;;;;8282874;28;20394;-74
2022/08/27 15:55:51;;;;;;;5.40;4.90;;;;;;;;;;8282751;28;20022;-74
2022/08/27 15:59:51;;;;;;;5.90;4.60;;;;;;;;;;8281912;28;20026;-75
2022/08/27 16:03:52;;;;;;;5.45;4.95;;;;;;;;;;8281477;28;20843;-74
2022/08/27 16:07:52;;;;;;;5.05;4.53;;;;;;;;;;8283796;28;20029;-74
2022/08/27 16:11:53;;;;;;;5.28;4.35;;;;;;;;;;8282158;28;20033;-74
2022/08/27 16:15:53;;;;;;;5.57;5.07;;;;;;;;;;8269300;28;20045;-74
2022/08/27 16:19:53;;;;;;;5.78;5.22;;;;;;;;;;8280697;28;20037;-74
2022/08/27 16:23:53;;;;;;;5.57;5.07;;;;;;;;;;8282045;28;20143;-73
2022/08/27 16:27:54;;;;;;;5.70;5.20;;;;;;;;;;8283886;28;20033;-74
2022/08/27 16:31:54;;;;;;;5.65;5.15;;;;;;;;;;8289080;28;20108;-74
2022/08/27 16:35:54;;;;;;;5.35;4.85;;;;;;;;;;8286717;28;20032;-74
2022/08/27 16:39:55;;;;;;;5.53;4.47;;;;;;;;;;8288250;28;20037;-74
2022/08/27 16:43:56;;;;;;;6.05;4.57;;;;;;;;;;8278211;28;20084;-74
2022/08/27 16:52:16;;;;;;;5.20;4.80;;;;;;;;;;8286839;28;20215;-75
2022/08/27 16:56:18;;;;;;;5.20;4.70;;;;;;;;;;8286975;28;20100;-74
2022/08/27 17:00:18;;;;;;;5.35;4.85;;;;;;;;;;8284462;28;20030;-74
2022/08/27 17:04:20;;;;;;;8.05;4.32;;;;;;;;;;8288897;28;20056;-74
2022/08/27 17:08:21;;;;;;;4.75;4.25;;;;;;;;;;8285629;28;20108;-74
2022/08/27 17:12:21;;;;;;;5.22;4.32;;;;;;;;;;8286980;28;20088;-74
2022/08/27 17:16:23;;;;;;;5.03;4.53;;;;;;;;;;8287321;28;20092;-74
2022/08/27 17:20:24;;;;;;;4.90;4.50;;;;;;;;;;8284537;28;20285;-74
2022/08/27 17:24:24;;;;;;;6.30;4.43;;;;;;;;;;8288569;28;20116;-74
2022/08/27 17:28:24;;;;;;;5.10;4.47;;;;;;;;;;8276980;28;20029;-73
2022/08/27 17:32:25;;;;;;;5.40;4.90;;;;;;;;;;8284148;28;20049;-74
2022/08/27 17:36:27;;;;;;;4.68;4.20;;;;;;;;;;8288024;28;20029;-73
2022/08/27 17:40:27;;;;;;;5.35;4.25;;;;;;;;;;8285478;28;20030;-73
2022/08/27 17:44:28;;;;;;;4.85;4.20;;;;;;;;;;8286177;28;20033;-74
2022/08/27 17:48:28;;;;;;;4.35;3.97;;;;;;;;;;8284953;28;20034;-73
2022/08/27 17:52:29;;;;;;;4.35;3.95;;;;;;;;;;8271193;28;20030;-74
2022/08/27 17:56:30;;;;;;;4.38;3.60;;;;;;;;;;8285868;28;20021;-74
2022/08/27 18:00:30;;;;;;;7.45;3.42;;;;;;;;;;8284184;28;20041;-74
2022/08/27 18:04:31;;;;;;;3.83;3.53;;;;;;;;;;8285713;28;20977;-74
2022/08/27 18:08:31;;;;;;;4.30;3.58;;;;;;;;;;8277176;28;20276;-73
2022/08/27 18:12:32;;;;;;;3.53;3.22;;;;;;;;;;8285869;28;20017;-74
2022/08/27 18:16:33;;;;;;;4.13;3.70;;;;;;;;;;8285378;28;20796;-73
2022/08/27 18:20:34;;;;;;;4.20;3.47;;;;;;;;;;8283570;28;20154;-74
2022/08/27 18:24:34;;;;;;;3.78;3.47;;;;;;;;;;8285617;28;20647;-74
2022/08/27 18:28:34;;;;;;;3.70;3.40;;;;;;;;;;8260645;28;20150;-74
2022/08/27 18:32:35;;;;;;;4.32;3.33;;;;;;;;;;8282817;28;20551;-74
2022/08/27 18:36:35;;;;;;;5.88;3.90;;;;;;;;;;8283913;28;20695;-74
2022/08/27 18:40:37;;;;;;;4.20;3.90;;;;;;;;;;8286215;28;20056;-73
2022/08/27 18:44:39;;;;;;;3.78;3.47;;;;;;;;;;8284448;28;20582;-74
2022/08/27 18:48:39;;;;;;;4.93;3.75;;;;;;;;;;8283309;28;20041;-74
2022/08/27 18:52:40;;;;;;;5.27;3.93;;;;;;;;;;8281555;28;20033;-75
2022/08/27 18:56:40;;;;;;;4.47;4.07;;;;;;;;;;8283435;28;20260;-73
2022/08/27 19:00:41;;;;;;;6.38;4.90;;;;;;;;;;8281561;28;20029;-73
2022/08/27 19:04:41;;;;;;;4.82;4.40;;;;;;;;;;8283650;28;20060;-74
2022/08/27 19:08:42;;;;;;;6.78;4.20;;;;;;;;;;8284969;28;20097;-73
2022/08/27 19:12:42;;;;;;;5.40;4.43;;;;;;;;;;8283516;28;20463;-74
2022/08/27 19:16:45;;;;;;;5.70;4.15;;;;;;;;;;8282626;28;20071;-74
2022/08/27 19:20:45;;;;;;;5.50;4.57;;;;;;;;;;8282949;28;20112;-73
2022/08/27 19:24:46;;;;;;;5.63;4.47;;;;;;;;;;8285555;28;20056;-73
2022/08/27 19:28:46;;;;;;;4.57;4.00;;;;;;;;;;8280069;28;20032;-74
2022/08/27 19:32:47;;;;;;;4.73;4.10;;;;;;;;;;8281207;28;20037;-74
2022/08/27 19:36:47;;;;;;;7.70;4.25;;;;;;;;;;8280955;28;20168;-73
2022/08/27 19:40:47;;;;;;;6.50;4.75;;;;;;;;;;8282651;28;20029;-73
2022/08/27 19:44:48;;;;;;;6.55;4.40;;;;;;;;;;8273415;28;20018;-73
2022/08/27 19:48:48;;;;;;;4.68;3.72;;;;;;;;;;8282572;28;20114;-73
2022/08/27 19:52:49;;;;;;;6.33;3.90;;;;;;;;;;8281867;28;20079;-73
2022/08/27 19:56:49;;;;;;;4.68;3.95;;;;;;;;;;8281217;28;20029;-73
2022/08/27 20:00:49;;;;;;;7.47;3.97;;;;;;;;;;8281711;28;20045;-74
2022/08/27 20:04:50;;;;;;;5.47;3.85;;;;;;;;;;8285427;28;20096;-73
2022/08/27 20:08:50;;;;;;;5.47;4.18;;;;;;;;;;8277938;28;20033;-73
2022/08/27 20:12:50;;;;;;;7.40;4.07;;;;;;;;;;8290088;28;20453;-73
2022/08/27 20:16:50;;;;;;;5.73;3.90;;;;;;;;;;8288278;28;20159;-73
2022/08/27 20:20:51;;;;;;;5.95;3.83;;;;;;;;;;8290076;28;20371;-74
2022/08/27 20:24:51;;;;;;;6.55;4.20;;;;;;;;;;8288842;28;20458;-73
2022/08/27 20:28:51;;;;;;;5.05;3.80;;;;;;;;;;8286650;28;20494;-72
2022/08/27 20:32:51;;;;;;;4.68;3.70;;;;;;;;;;8287166;28;20046;-72
2022/08/27 20:36:52;;;;;;;4.95;3.75;;;;;;;;;;8288436;28;20029;-72
2022/08/27 20:40:52;;;;;;;6.82;4.20;;;;;;;;;;8288008;28;20025;-72
2022/08/27 20:44:53;;;;;;;4.60;3.57;;;;;;;;;;8288633;28;20136;-72
2022/08/27 20:48:55;;;;;;;5.90;3.92;;;;;;;;;;8287978;28;20276;-72
2022/08/27 20:52:55;;;;;;;4.57;3.40;;;;;;;;;;8284769;28;20439;-72
2022/08/27 20:56:55;;;;;;;5.13;3.43;;;;;;;;;;8288372;28;20801;-72
2022/08/27 21:00:56;;;;;;;7.80;4.07;;;;;;;;;;8284925;28;20034;-72
2022/08/27 21:04:56;;;;;;;4.93;3.58;;;;;;;;;;8287953;28;20052;-72
2022/08/27 21:08:56;;;;;;;5.05;3.33;;;;;;;;;;8288554;28;20061;-73
2022/08/27 21:12:57;;;;;;;7.18;4.07;;;;;;;;;;8286620;28;20044;-72
2022/08/27 21:16:57;;;;;;;4.60;3.38;;;;;;;;;;8285210;28;20080;-72
2022/08/27 21:20:58;;;;;;;7.83;3.60;;;;;;;;;;8272699;28;20025;-72
2022/08/27 21:24:59;;;;;;;5.07;3.60;;;;;;;;;;8286681;28;20276;-71
2022/08/27 21:28:59;;;;;;;5.63;3.45;;;;;;;;;;8275150;28;20034;-72
2022/08/27 21:32:59;;;;;;;5.72;3.42;;;;;;;;;;8284851;28;20037;-72
2022/08/27 21:36:59;;;;;;;5.45;3.47;;;;;;;;;;8286830;28;20021;-73
2022/08/27 21:40:59;;;;;;;4.20;3.63;;;;;;;;;;8286307;28;20099;-72
2022/08/27 21:45:00;;;;;;;5.53;3.25;;;;;;;;;;8286069;28;20021;-72
2022/08/27 21:49:00;;;;;;;6.45;3.50;;;;;;;;;;8286103;28;20041;-72
2022/08/27 21:53:00;;;;;;;5.57;3.77;;;;;;;;;;8286098;28;20132;-72
2022/08/27 21:57:02;;;;;;;5.90;3.53;;;;;;;;;;8285947;28;20067;-73
2022/08/27 22:01:04;;;;;;;4.23;3.40;;;;;;;;;;8286181;28;20351;-73
2022/08/27 22:05:04;;;;;;;5.35;3.22;;;;;;;;;;8286167;28;20030;-72
2022/08/27 22:09:05;;;;;;;5.55;3.70;;;;;;;;;;8277289;28;20562;-72
2022/08/27 22:13:05;;;;;;;7.50;3.33;;;;;;;;;;8285406;28;20648;-73
2022/08/27 22:17:06;;;;;;;5.55;3.45;;;;;;;;;;8283393;28;20033;-72
2022/08/27 22:21:06;;;;;;;5.82;3.47;;;;;;;;;;8284611;28;20543;-72
2022/08/27 22:25:07;;;;;;;6.47;3.22;;;;;;;;;;8286473;28;20029;-72
2022/08/27 22:29:07;;;;;;;4.85;3.33;;;;;;;;;;8285432;28;20036;-72
2022/08/27 22:33:08;;;;;;;5.38;3.30;;;;;;;;;;8283139;28;20936;-72
2022/08/27 22:37:08;;;;;;;8.38;3.30;;;;;;;;;;8285561;28;20097;-72
2022/08/27 22:41:08;;;;;;;4.63;3.15;;;;;;;;;;8282705;28;20037;-72
2022/08/27 22:45:09;;;;;;;5.65;3.65;;;;;;;;;;8284340;28;20025;-73
2022/08/27 22:49:09;;;;;;;9.65;3.35;;;;;;;;;;8283769;28;20030;-72
2022/08/27 22:53:09;;;;;;;4.53;3.20;;;;;;;;;;8283479;28;20026;-72
2022/08/27 22:57:09;;;;;;;4.82;3.28;;;;;;;;;;8284901;28;20024;-72
2022/08/27 23:01:10;;;;;;;3.88;3.38;;;;;;;;;;8282702;28;20064;-72
2022/08/27 23:05:11;;;;;;;4.77;3.40;;;;;;;;;;8283143;28;20060;-72
2022/08/27 23:09:11;;;;;;;6.07;3.63;;;;;;;;;;8283102;28;20395;-72
2022/08/27 23:13:11;;;;;;;3.67;3.30;;;;;;;;;;8283060;28;20044;-72
2022/08/27 23:17:12;;;;;;;5.85;3.13;;;;;;;;;;8282533;28;20169;-72
2022/08/27 23:21:13;;;;;;;5.70;3.47;;;;;;;;;;8283404;28;20024;-72
2022/08/27 23:29:32;;;;;;;4.97;3.10;;;;;;;;;;8282841;28;20334;-72
2022/08/27 23:33:32;;;;;;;3.92;3.17;;;;;;;;;;8283018;28;20881;-72
2022/08/27 23:37:33;;;;;;;5.53;3.10;;;;;;;;;;8283981;28;20025;-72
2022/08/27 23:41:33;;;;;;;4.30;3.17;;;;;;;;;;8282212;28;20021;-72
2022/08/27 23:45:33;;;;;;;5.57;3.22;;;;;;;;;;8281979;28;20036;-72
2022/08/27 23:49:34;;;;;;;3.70;3.20;;;;;;;;;;8282415;28;20033;-72
2022/08/27 23:53:35;;;;;;;5.85;3.20;;;;;;;;;;8282397;28;20026;-72
2022/08/27 23:57:35;;;;;;;5.10;3.20;;;;;;;;;;8283088;28;20144;-72
